Jaguar — A8XZ3 — position and weather

sailwx.info

Track history (hours):
 
Tides and Currents Weather Stations Pressure Air Temp Water Temp Dewpoint Dewpoint Depression Visibility Wind Speed Wind Dir Waves Ship Positions

Jaguar

Last reported at 2017-Dec-11 17:00 UTC. Time now 2017-Dec-12 06:40 UTC.
Position N 43°38' E 028°59'.

Length 157 m; draft 7.2 m.

Type: Cargo ship. MMSI: 636015001.

Date/timePositionNaut miles runAvg speedWind from/ knotsBaromVisibWave heightAir tempDewpointWater temp
2017-Dec-11 17:00N 43°38' E 028°59'611.9
2017-Dec-11 16:30N 43°44' E 028°56'612.0
2017-Dec-11 16:00N 43°50' E 028°53'612.1
2017-Dec-11 15:30N 43°55' E 028°50'612.3
2017-Dec-11 15:00N 44°01' E 028°46'612.2
2017-Dec-11 14:31N 44°06' E 028°42'2 3.3
2017-Dec-11 13:59N 44°06' E 028°40'0 0.0
2017-Dec-11 13:29N 44°06' E 028°40'0 0.0
2017-Dec-11 12:59N 44°06' E 028°40'0 0.0
2017-Dec-11 12:29N 44°06' E 028°40'0 0.0
2017-Dec-11 11:59N 44°06' E 028°40'0 0.0
2017-Dec-11 11:29N 44°06' E 028°40'0 0.0
2017-Dec-11 10:59N 44°06' E 028°40'0 0.0
2017-Dec-11 10:29N 44°06' E 028°40'0 0.0
2017-Dec-11 09:59N 44°06' E 028°40'0 0.0
2017-Dec-11 09:29N 44°06' E 028°40'0 0.0
2017-Dec-11 08:59N 44°06' E 028°40'0 0.0
2017-Dec-11 08:29N 44°06' E 028°40'0 0.0
2017-Dec-11 07:59N 44°06' E 028°40'0 0.0
2017-Dec-11 07:29N 44°06' E 028°40'0 0.0
2017-Dec-11 06:59N 44°06' E 028°40'0 0.0
2017-Dec-11 06:29N 44°06' E 028°40'0 0.0
2017-Dec-11 05:59N 44°06' E 028°40'0 0.0
2017-Dec-11 05:29N 44°06' E 028°40'0 0.0
2017-Dec-11 04:59N 44°06' E 028°40'0 0.0
2017-Dec-11 04:29N 44°06' E 028°40'0 0.0
2017-Dec-11 03:59N 44°06' E 028°40'0 0.0
2017-Dec-11 03:26N 44°06' E 028°40'0 0.0
2017-Dec-11 02:59N 44°06' E 028°40'0 0.0
2017-Dec-11 02:29N 44°06' E 028°40'0 0.0
2017-Dec-11 01:56N 44°06' E 028°40'0 0.0
2017-Dec-11 01:29N 44°06' E 028°40'0 0.2
2017-Dec-11 01:00N 44°06' E 028°40'2 3.6
2017-Dec-11 00:30N 44°06' E 028°42'4 7.7
2017-Dec-11 00:00N 44°04' E 028°46'713.0
2017-Dec-10 23:30N 44°03' E 028°55'612.3
2017-Dec-10 23:00N 44°06' E 029°02'612.3
2017-Dec-10 22:30N 44°10' E 029°09'612.2
2017-Dec-10 22:00N 44°13' E 029°17'612.2
2017-Dec-10 21:30N 44°17' E 029°24'612.1
2017-Dec-10 21:00N 44°21' E 029°30'13012.2
2017-Dec-10 10:22N 46°17' E 030°53'513.6
2017-Dec-10 10:00N 46°22' E 030°51'612.9
2017-Dec-10 09:30N 46°28' E 030°49'4 8.1
2017-Dec-10 09:00N 46°30' E 030°44'0 0.5
2017-Dec-10 08:28N 46°30' E 030°44'0 0.0
2017-Dec-10 07:58N 46°30' E 030°44'0 0.0
2017-Dec-10 07:19N 46°30' E 030°44'0 0.0
2017-Dec-10 06:52N 46°30' E 030°44'0 0.0
2017-Dec-10 06:28N 46°30' E 030°44'0 0.0
2017-Dec-10 05:53N 46°30' E 030°44'0 0.0
2017-Dec-10 05:27N 46°30' E 030°44'0 0.0
2017-Dec-10 05:00N 46°30' E 030°44'0 0.0
2017-Dec-10 04:30N 46°30' E 030°44'0 0.0
2017-Dec-10 04:00N 46°30' E 030°44'0 0.0
2017-Dec-10 03:27N 46°30' E 030°44'0 0.0
2017-Dec-10 02:21N 46°30' E 030°44'0 0.0
2017-Dec-10 02:00N 46°30' E 030°44'0 0.0
2017-Dec-10 01:27N 46°30' E 030°44'0 0.0
2017-Dec-10 00:57N 46°30' E 030°44'0 0.0
2017-Dec-09 23:45N 46°30' E 030°44'0 0.0
2017-Dec-09 23:27N 46°30' E 030°44'0 0.0
2017-Dec-09 23:00N 46°30' E 030°44'0 0.0
2017-Dec-09 22:30N 46°30' E 030°44'0 0.0
2017-Dec-09 21:57N 46°30' E 030°44'0 0.0
2017-Dec-09 20:57N 46°30' E 030°44'0 0.0
2017-Dec-09 20:30N 46°30' E 030°44'0 0.2
2017-Dec-09 20:00N 46°30' E 030°44'2 4.2
2017-Dec-09 19:31N 46°30' E 030°47'3 6.8
2017-Dec-09 19:00N 46°28' E 030°51'5 9.6
2017-Dec-09 18:31N 46°23' E 030°52'510.9
2017-Dec-09 18:01N 46°18' E 030°56'  
2017-Dec-03 13:50N 35°49' E 014°32'1 3.7
2017-Dec-03 13:30N 35°49' E 014°34'2 3.8
2017-Dec-03 13:00N 35°48' E 014°35'1 2.6
2017-Dec-03 12:30N 35°46' E 014°36'6 1.0
2017-Dec-03 06:17N 35°40' E 014°38'0 0.9
2017-Dec-03 05:59N 35°40' E 014°38'5 1.2
2017-Dec-03 01:28N 35°43' E 014°32'9 1.4
2017-Dec-02 18:59N 35°42' E 014°43'6 2.0
2017-Dec-02 16:14N 35°43' E 014°36'0 2.1
2017-Dec-02 16:00N 35°43' E 014°36'1 1.9
2017-Dec-02 15:15N 35°43' E 014°34'1 1.9
2017-Dec-02 14:58N 35°43' E 014°33'4 7.8
2017-Dec-02 14:30N 35°46' E 014°37'5 9.6
2017-Dec-02 14:00N 35°49' E 014°41'3 4.9
2017-Dec-02 13:29N 35°50' E 014°43'0 0.3
2017-Dec-02 13:00N 35°50' E 014°43'0 0.4
2017-Dec-02 12:29N 35°51' E 014°43'0 0.2
2017-Dec-02 11:59N 35°50' E 014°43'0 0.2
2017-Dec-02 11:29N 35°50' E 014°43'0 0.1
2017-Dec-02 10:59N 35°50' E 014°43'0 0.1
2017-Dec-02 10:29N 35°50' E 014°43'0 0.1
2017-Dec-02 09:59N 35°50' E 014°43'0 0.1
2017-Dec-02 09:26N 35°50' E 014°43'0 0.1
2017-Dec-02 08:59N 35°50' E 014°43'0 0.1
2017-Dec-02 08:29N 35°50' E 014°43'0 0.1
2017-Dec-02 07:59N 35°50' E 014°43'0 0.1
2017-Dec-02 07:29N 35°50' E 014°43'1 1.8
2017-Dec-02 06:59N 35°50' E 014°42'1410.6
2017-Dec-02 05:41N 35°44' E 014°26'311.2
2017-Dec-02 05:27N 35°45' E 014°24'511.4
2017-Dec-02 05:00N 35°48' E 014°18'611.7
2017-Dec-02 04:30N 35°50' E 014°12'611.7
2017-Dec-02 04:00N 35°53' E 014°05'611.9
2017-Dec-02 03:30N 35°56' E 013°59'611.7
2017-Dec-02 03:00N 35°59' E 013°53'611.4
2017-Dec-02 02:29N 36°02' E 013°46'  
Track history (hours):
 
Tides and Currents Weather Stations Pressure Air Temp Water Temp Dewpoint Dewpoint Depression Visibility Wind Speed Wind Dir Waves Ship Positions

Jaguar

Last reported at 2017-Dec-11 17:00 UTC. Time now 2017-Dec-12 06:40 UTC.
Position N 43°38' E 028°59'.

Length 157 m; draft 7.2 m.

Type: Cargo ship. MMSI: 636015001.

Date/timePositionNaut miles runAvg speedWind from/ knotsBaromVisibWave heightAir tempDewpointWater temp
2017-Dec-11 17:00N 43°38' E 028°59'611.9
2017-Dec-11 16:30N 43°44' E 028°56'612.0
2017-Dec-11 16:00N 43°50' E 028°53'612.1
2017-Dec-11 15:30N 43°55' E 028°50'612.3
2017-Dec-11 15:00N 44°01' E 028°46'612.2
2017-Dec-11 14:31N 44°06' E 028°42'2 3.3
2017-Dec-11 13:59N 44°06' E 028°40'0 0.0
2017-Dec-11 13:29N 44°06' E 028°40'0 0.0
2017-Dec-11 12:59N 44°06' E 028°40'0 0.0
2017-Dec-11 12:29N 44°06' E 028°40'0 0.0
2017-Dec-11 11:59N 44°06' E 028°40'0 0.0
2017-Dec-11 11:29N 44°06' E 028°40'0 0.0
2017-Dec-11 10:59N 44°06' E 028°40'0 0.0
2017-Dec-11 10:29N 44°06' E 028°40'0 0.0
2017-Dec-11 09:59N 44°06' E 028°40'0 0.0
2017-Dec-11 09:29N 44°06' E 028°40'0 0.0
2017-Dec-11 08:59N 44°06' E 028°40'0 0.0
2017-Dec-11 08:29N 44°06' E 028°40'0 0.0
2017-Dec-11 07:59N 44°06' E 028°40'0 0.0
2017-Dec-11 07:29N 44°06' E 028°40'0 0.0
2017-Dec-11 06:59N 44°06' E 028°40'0 0.0
2017-Dec-11 06:29N 44°06' E 028°40'0 0.0
2017-Dec-11 05:59N 44°06' E 028°40'0 0.0
2017-Dec-11 05:29N 44°06' E 028°40'0 0.0
2017-Dec-11 04:59N 44°06' E 028°40'0 0.0
2017-Dec-11 04:29N 44°06' E 028°40'0 0.0
2017-Dec-11 03:59N 44°06' E 028°40'0 0.0
2017-Dec-11 03:26N 44°06' E 028°40'0 0.0
2017-Dec-11 02:59N 44°06' E 028°40'0 0.0
2017-Dec-11 02:29N 44°06' E 028°40'0 0.0
2017-Dec-11 01:56N 44°06' E 028°40'0 0.0
2017-Dec-11 01:29N 44°06' E 028°40'0 0.2
2017-Dec-11 01:00N 44°06' E 028°40'2 3.6
2017-Dec-11 00:30N 44°06' E 028°42'4 7.7
2017-Dec-11 00:00N 44°04' E 028°46'713.0
2017-Dec-10 23:30N 44°03' E 028°55'612.3
2017-Dec-10 23:00N 44°06' E 029°02'612.3
2017-Dec-10 22:30N 44°10' E 029°09'612.2
2017-Dec-10 22:00N 44°13' E 029°17'612.2
2017-Dec-10 21:30N 44°17' E 029°24'612.1
2017-Dec-10 21:00N 44°21' E 029°30'13012.2
2017-Dec-10 10:22N 46°17' E 030°53'513.6
2017-Dec-10 10:00N 46°22' E 030°51'612.9
2017-Dec-10 09:30N 46°28' E 030°49'4 8.1
2017-Dec-10 09:00N 46°30' E 030°44'0 0.5
2017-Dec-10 08:28N 46°30' E 030°44'0 0.0
2017-Dec-10 07:58N 46°30' E 030°44'0 0.0
2017-Dec-10 07:19N 46°30' E 030°44'0 0.0
2017-Dec-10 06:52N 46°30' E 030°44'0 0.0
2017-Dec-10 06:28N 46°30' E 030°44'0 0.0
2017-Dec-10 05:53N 46°30' E 030°44'0 0.0
2017-Dec-10 05:27N 46°30' E 030°44'0 0.0
2017-Dec-10 05:00N 46°30' E 030°44'0 0.0
2017-Dec-10 04:30N 46°30' E 030°44'0 0.0
2017-Dec-10 04:00N 46°30' E 030°44'0 0.0
2017-Dec-10 03:27N 46°30' E 030°44'0 0.0
2017-Dec-10 02:21N 46°30' E 030°44'0 0.0
2017-Dec-10 02:00N 46°30' E 030°44'0 0.0
2017-Dec-10 01:27N 46°30' E 030°44'0 0.0
2017-Dec-10 00:57N 46°30' E 030°44'0 0.0
2017-Dec-09 23:45N 46°30' E 030°44'0 0.0
2017-Dec-09 23:27N 46°30' E 030°44'0 0.0
2017-Dec-09 23:00N 46°30' E 030°44'0 0.0
2017-Dec-09 22:30N 46°30' E 030°44'0 0.0
2017-Dec-09 21:57N 46°30' E 030°44'0 0.0
2017-Dec-09 20:57N 46°30' E 030°44'0 0.0
2017-Dec-09 20:30N 46°30' E 030°44'0 0.2
2017-Dec-09 20:00N 46°30' E 030°44'2 4.2
2017-Dec-09 19:31N 46°30' E 030°47'3 6.8
2017-Dec-09 19:00N 46°28' E 030°51'5 9.6
2017-Dec-09 18:31N 46°23' E 030°52'510.9
2017-Dec-09 18:01N 46°18' E 030°56'  
2017-Dec-03 13:50N 35°49' E 014°32'1 3.7
2017-Dec-03 13:30N 35°49' E 014°34'2 3.8
2017-Dec-03 13:00N 35°48' E 014°35'1 2.6
2017-Dec-03 12:30N 35°46' E 014°36'6 1.0
2017-Dec-03 06:17N 35°40' E 014°38'0 0.9
2017-Dec-03 05:59N 35°40' E 014°38'5 1.2
2017-Dec-03 01:28N 35°43' E 014°32'9 1.4
2017-Dec-02 18:59N 35°42' E 014°43'6 2.0
2017-Dec-02 16:14N 35°43' E 014°36'0 2.1
2017-Dec-02 16:00N 35°43' E 014°36'1 1.9
2017-Dec-02 15:15N 35°43' E 014°34'1 1.9
2017-Dec-02 14:58N 35°43' E 014°33'4 7.8
2017-Dec-02 14:30N 35°46' E 014°37'5 9.6
2017-Dec-02 14:00N 35°49' E 014°41'3 4.9
2017-Dec-02 13:29N 35°50' E 014°43'0 0.3
2017-Dec-02 13:00N 35°50' E 014°43'0 0.4
2017-Dec-02 12:29N 35°51' E 014°43'0 0.2
2017-Dec-02 11:59N 35°50' E 014°43'0 0.2
2017-Dec-02 11:29N 35°50' E 014°43'0 0.1
2017-Dec-02 10:59N 35°50' E 014°43'0 0.1
2017-Dec-02 10:29N 35°50' E 014°43'0 0.1
2017-Dec-02 09:59N 35°50' E 014°43'0 0.1
2017-Dec-02 09:26N 35°50' E 014°43'0 0.1
2017-Dec-02 08:59N 35°50' E 014°43'0 0.1
2017-Dec-02 08:29N 35°50' E 014°43'0 0.1
2017-Dec-02 07:59N 35°50' E 014°43'0 0.1
2017-Dec-02 07:29N 35°50' E 014°43'1 1.8
2017-Dec-02 06:59N 35°50' E 014°42'1410.6
2017-Dec-02 05:41N 35°44' E 014°26'311.2
2017-Dec-02 05:27N 35°45' E 014°24'511.4
2017-Dec-02 05:00N 35°48' E 014°18'611.7
2017-Dec-02 04:30N 35°50' E 014°12'611.7
2017-Dec-02 04:00N 35°53' E 014°05'611.9
2017-Dec-02 03:30N 35°56' E 013°59'611.7
2017-Dec-02 03:00N 35°59' E 013°53'611.4
2017-Dec-02 02:29N 36°02' E 013°46'  

Dump ship's entire track history